sensor_id;sensor_type;location;lat;lon;timestamp;pressure;altitude;pressure_sealevel;temperature;humidity
48718;BME280;34521;33.042;-96.586;2023-04-04T00:00:48;98308.92;;;23.06;34.81
48718;BME280;34521;33.042;-96.586;2023-04-04T00:03:13;98311.51;;;23.25;34.46
48718;BME280;34521;33.042;-96.586;2023-04-04T00:05:38;98309.37;;;22.10;36.63
48718;BME280;34521;33.042;-96.586;2023-04-04T00:08:03;98305.95;;;22.23;36.01
48718;BME280;34521;33.042;-96.586;2023-04-04T00:10:28;98303.55;;;22.87;34.63
48718;BME280;34521;33.042;-96.586;2023-04-04T00:12:54;98298.85;;;22.03;34.66
48718;BME280;34521;33.042;-96.586;2023-04-04T00:15:18;98306.04;;;21.53;36.22
48718;BME280;34521;33.042;-96.586;2023-04-04T00:17:43;98309.90;;;22.31;34.41
48718;BME280;34521;33.042;-96.586;2023-04-04T00:20:09;98303.10;;;22.94;33.56
48718;BME280;34521;33.042;-96.586;2023-04-04T00:22:33;98297.66;;;23.24;33.04
48718;BME280;34521;33.042;-96.586;2023-04-04T00:24:58;98299.08;;;22.61;34.76
48718;BME280;34521;33.042;-96.586;2023-04-04T00:27:23;98303.01;;;21.81;35.90
48718;BME280;34521;33.042;-96.586;2023-04-04T00:29:48;98303.55;;;21.67;35.56
48718;BME280;34521;33.042;-96.586;2023-04-04T00:32:14;98299.63;;;21.55;34.91
48718;BME280;34521;33.042;-96.586;2023-04-04T00:34:38;98301.58;;;21.61;35.30
48718;BME280;34521;33.042;-96.586;2023-04-04T00:37:04;98298.83;;;22.64;33.41
48718;BME280;34521;33.042;-96.586;2023-04-04T00:39:28;98306.89;;;22.92;33.18
48718;BME280;34521;33.042;-96.586;2023-04-04T00:41:54;98309.08;;;23.08;33.09
48718;BME280;34521;33.042;-96.586;2023-04-04T00:44:19;98313.46;;;22.11;35.19
48718;BME280;34521;33.042;-96.586;2023-04-04T00:46:44;98318.51;;;21.71;35.55
48718;BME280;34521;33.042;-96.586;2023-04-04T00:49:09;98321.17;;;21.60;34.51
48718;BME280;34521;33.042;-96.586;2023-04-04T00:51:34;98320.53;;;21.71;34.16
48718;BME280;34521;33.042;-96.586;2023-04-04T00:53:59;98323.85;;;22.01;34.56
48718;BME280;34521;33.042;-96.586;2023-04-04T00:56:24;98326.97;;;22.54;33.22
48718;BME280;34521;33.042;-96.586;2023-04-04T00:58:49;98330.13;;;23.04;33.03
48718;BME280;34521;33.042;-96.586;2023-04-04T01:01:15;98326.61;;;22.85;33.02
48718;BME280;34521;33.042;-96.586;2023-04-04T01:03:39;98328.29;;;23.67;32.70
48718;BME280;34521;33.042;-96.586;2023-04-04T01:06:04;98329.80;;;22.23;34.63
48718;BME280;34521;33.042;-96.586;2023-04-04T01:08:29;98331.07;;;21.31;35.42
48718;BME280;34521;33.042;-96.586;2023-04-04T01:10:54;98332.28;;;20.89;35.13
48718;BME280;34521;33.042;-96.586;2023-04-04T01:13:20;98339.22;;;21.00;35.39
48718;BME280;34521;33.042;-96.586;2023-04-04T01:15:45;98345.04;;;21.93;33.85
48718;BME280;34521;33.042;-96.586;2023-04-04T01:18:11;98354.38;;;22.40;33.31
48718;BME280;34521;33.042;-96.586;2023-04-04T01:20:39;98353.95;;;22.63;33.13
48718;BME280;34521;33.042;-96.586;2023-04-04T01:23:01;98346.59;;;23.50;32.47
48718;BME280;34521;33.042;-96.586;2023-04-04T01:25:27;98351.35;;;22.47;34.11
48718;BME280;34521;33.042;-96.586;2023-04-04T01:27:50;98350.55;;;21.23;35.25
48718;BME280;34521;33.042;-96.586;2023-04-04T01:30:16;98354.00;;;21.73;34.49
48718;BME280;34521;33.042;-96.586;2023-04-04T01:32:44;98353.69;;;21.37;35.45
48718;BME280;34521;33.042;-96.586;2023-04-04T01:35:14;98360.21;;;22.14;33.59
48718;BME280;34521;33.042;-96.586;2023-04-04T01:37:37;98369.41;;;22.67;32.93
48718;BME280;34521;33.042;-96.586;2023-04-04T01:39:58;98368.70;;;22.87;32.74
48718;BME280;34521;33.042;-96.586;2023-04-04T01:42:20;98369.23;;;23.35;32.30
48718;BME280;34521;33.042;-96.586;2023-04-04T01:44:45;98378.54;;;21.76;34.62
48718;BME280;34521;33.042;-96.586;2023-04-04T01:47:12;98386.10;;;21.83;34.50
48718;BME280;34521;33.042;-96.586;2023-04-04T01:49:35;98386.74;;;21.18;34.46
48718;BME280;34521;33.042;-96.586;2023-04-04T01:52:00;98397.92;;;21.41;35.12
48718;BME280;34521;33.042;-96.586;2023-04-04T01:54:25;98395.27;;;22.68;33.34
48718;BME280;34521;33.042;-96.586;2023-04-04T01:56:50;98387.15;;;22.61;32.89
48718;BME280;34521;33.042;-96.586;2023-04-04T01:59:15;98387.20;;;22.75;32.76
48718;BME280;34521;33.042;-96.586;2023-04-04T02:01:40;98378.16;;;23.11;32.41
48718;BME280;34521;33.042;-96.586;2023-04-04T02:04:05;98378.44;;;23.31;32.23
48718;BME280;34521;33.042;-96.586;2023-04-04T02:06:30;98384.60;;;21.88;34.57
48718;BME280;34521;33.042;-96.586;2023-04-04T02:08:55;98385.74;;;21.77;34.48
48718;BME280;34521;33.042;-96.586;2023-04-04T02:11:21;98398.41;;;21.20;34.77
48718;BME280;34521;33.042;-96.586;2023-04-04T02:13:45;98394.60;;;22.17;33.93
48718;BME280;34521;33.042;-96.586;2023-04-04T02:16:10;98398.95;;;22.52;32.88
48718;BME280;34521;33.042;-96.586;2023-04-04T02:18:35;98399.03;;;22.87;32.49
48718;BME280;34521;33.042;-96.586;2023-04-04T02:21:01;98393.25;;;22.91;32.54
48718;BME280;34521;33.042;-96.586;2023-04-04T02:23:26;98395.48;;;23.21;32.57
48718;BME280;34521;33.042;-96.586;2023-04-04T02:25:51;98399.28;;;21.75;34.66
48718;BME280;34521;33.042;-96.586;2023-04-04T02:28:16;98407.23;;;21.90;34.24
48718;BME280;34521;33.042;-96.586;2023-04-04T02:30:41;98427.35;;;20.96;34.51
48718;BME280;34521;33.042;-96.586;2023-04-04T02:33:06;98414.16;;;21.85;34.40
48718;BME280;34521;33.042;-96.586;2023-04-04T02:35:31;98419.98;;;22.50;33.34
48718;BME280;34521;33.042;-96.586;2023-04-04T02:37:56;98424.90;;;22.80;33.03
48718;BME280;34521;33.042;-96.586;2023-04-04T02:40:21;98438.74;;;22.63;32.76
48718;BME280;34521;33.042;-96.586;2023-04-04T02:42:46;98439.47;;;23.03;32.36
48718;BME280;34521;33.042;-96.586;2023-04-04T02:45:11;98443.52;;;23.29;32.15
48718;BME280;34521;33.042;-96.586;2023-04-04T02:47:36;98446.25;;;21.41;34.99
48718;BME280;34521;33.042;-96.586;2023-04-04T02:50:01;98451.56;;;21.44;34.59
48718;BME280;34521;33.042;-96.586;2023-04-04T02:52:26;98436.58;;;21.41;34.85
48718;BME280;34521;33.042;-96.586;2023-04-04T02:54:51;98439.84;;;22.21;33.87
48718;BME280;34521;33.042;-96.586;2023-04-04T02:57:17;98441.89;;;22.42;33.21
48718;BME280;34521;33.042;-96.586;2023-04-04T02:59:41;98441.67;;;22.30;33.12
48718;BME280;34521;33.042;-96.586;2023-04-04T03:02:06;98433.36;;;22.85;32.80
48718;BME280;34521;33.042;-96.586;2023-04-04T03:04:32;98428.25;;;22.73;32.76
48718;BME280;34521;33.042;-96.586;2023-04-04T03:06:57;98432.97;;;22.93;32.61
48718;BME280;34521;33.042;-96.586;2023-04-04T03:09:22;98435.06;;;21.98;34.55
48718;BME280;34521;33.042;-96.586;2023-04-04T03:11:48;98439.70;;;21.37;34.66
48718;BME280;34521;33.042;-96.586;2023-04-04T03:14:12;98441.48;;;21.48;33.94
48718;BME280;34521;33.042;-96.586;2023-04-04T03:16:37;98447.98;;;21.72;34.18
48718;BME280;34521;33.042;-96.586;2023-04-04T03:19:02;98443.66;;;22.16;33.28
48718;BME280;34521;33.042;-96.586;2023-04-04T03:21:27;98450.42;;;22.56;32.89
48718;BME280;34521;33.042;-96.586;2023-04-04T03:23:52;98460.30;;;22.24;33.04
48718;BME280;34521;33.042;-96.586;2023-04-04T03:26:17;98470.13;;;22.83;32.43
48718;BME280;34521;33.042;-96.586;2023-04-04T03:28:43;98476.36;;;22.70;32.70
48718;BME280;34521;33.042;-96.586;2023-04-04T03:31:08;98479.33;;;22.72;32.76
48718;BME280;34521;33.042;-96.586;2023-04-04T03:33:36;98488.96;;;21.47;34.85
48718;BME280;34521;33.042;-96.586;2023-04-04T03:35:58;98504.69;;;21.44;34.51
48718;BME280;34521;33.042;-96.586;2023-04-04T03:38:23;98488.78;;;21.44;34.51
48718;BME280;34521;33.042;-96.586;2023-04-04T03:40:50;98488.46;;;21.77;34.08
48718;BME280;34521;33.042;-96.586;2023-04-04T03:43:13;98477.66;;;22.37;33.38
48718;BME280;34521;33.042;-96.586;2023-04-04T03:45:38;98477.66;;;22.63;33.08
48718;BME280;34521;33.042;-96.586;2023-04-04T03:48:04;98485.70;;;22.88;32.60
48718;BME280;34521;33.042;-96.586;2023-04-04T03:50:29;98483.20;;;23.31;32.42
48718;BME280;34521;33.042;-96.586;2023-04-04T03:52:53;98474.59;;;22.82;32.52
48718;BME280;34521;33.042;-96.586;2023-04-04T03:55:18;98478.00;;;23.16;32.74
48718;BME280;34521;33.042;-96.586;2023-04-04T03:57:44;98488.41;;;22.03;34.30
48718;BME280;34521;33.042;-96.586;2023-04-04T04:00:10;98495.19;;;21.79;34.00
48718;BME280;34521;33.042;-96.586;2023-04-04T04:02:35;98494.80;;;21.04;34.69
48718;BME280;34521;33.042;-96.586;2023-04-04T04:05:00;98494.14;;;21.83;34.21
48718;BME280;34521;33.042;-96.586;2023-04-04T04:07:24;98489.28;;;22.14;33.67
48718;BME280;34521;33.042;-96.586;2023-04-04T04:09:50;98489.56;;;22.62;33.12
48718;BME280;34521;33.042;-96.586;2023-04-04T04:12:15;98490.83;;;22.38;32.87
48718;BME280;34521;33.042;-96.586;2023-04-04T04:14:40;98485.96;;;22.94;32.57
48718;BME280;34521;33.042;-96.586;2023-04-04T04:17:05;98473.51;;;22.72;32.88
48718;BME280;34521;33.042;-96.586;2023-04-04T04:19:30;98473.06;;;22.62;32.81
48718;BME280;34521;33.042;-96.586;2023-04-04T04:21:55;98476.91;;;21.64;35.00
48718;BME280;34521;33.042;-96.586;2023-04-04T04:24:21;98482.26;;;21.11;35.22
48718;BME280;34521;33.042;-96.586;2023-04-04T04:26:45;98472.63;;;21.21;34.21
48718;BME280;34521;33.042;-96.586;2023-04-04T04:29:11;98461.48;;;21.62;34.24
48718;BME280;34521;33.042;-96.586;2023-04-04T04:31:37;98445.28;;;22.14;33.63
48718;BME280;34521;33.042;-96.586;2023-04-04T04:34:00;98449.11;;;22.44;33.02
48718;BME280;34521;33.042;-96.586;2023-04-04T04:36:26;98452.31;;;22.78;32.93
48718;BME280;34521;33.042;-96.586;2023-04-04T04:38:51;98443.56;;;22.28;33.06
48718;BME280;34521;33.042;-96.586;2023-04-04T04:41:16;98448.25;;;22.41;32.98
48718;BME280;34521;33.042;-96.586;2023-04-04T04:43:41;98449.22;;;22.42;32.73
48718;BME280;34521;33.042;-96.586;2023-04-04T04:46:06;98447.91;;;22.51;32.98
48718;BME280;34521;33.042;-96.586;2023-04-04T04:48:32;98454.17;;;21.48;34.70
48718;BME280;34521;33.042;-96.586;2023-04-04T04:50:56;98447.35;;;21.69;34.56
48718;BME280;34521;33.042;-96.586;2023-04-04T04:53:21;98454.69;;;21.60;33.86
48718;BME280;34521;33.042;-96.586;2023-04-04T04:55:46;98454.21;;;22.02;33.99
48718;BME280;34521;33.042;-96.586;2023-04-04T04:58:11;98451.79;;;21.91;33.91
48718;BME280;34521;33.042;-96.586;2023-04-04T05:00:36;98447.95;;;22.07;33.48
48718;BME280;34521;33.042;-96.586;2023-04-04T05:03:02;98442.94;;;22.60;33.16
48718;BME280;34521;33.042;-96.586;2023-04-04T05:05:27;98446.75;;;22.61;32.96
48718;BME280;34521;33.042;-96.586;2023-04-04T05:07:52;98451.13;;;22.73;32.55
48718;BME280;34521;33.042;-96.586;2023-04-04T05:10:18;98451.92;;;22.42;33.02
48718;BME280;34521;33.042;-96.586;2023-04-04T05:12:43;98444.66;;;22.30;33.25
48718;BME280;34521;33.042;-96.586;2023-04-04T05:15:08;98450.66;;;21.57;34.94
48718;BME280;34521;33.042;-96.586;2023-04-04T05:17:35;98447.62;;;21.15;34.63
48718;BME280;34521;33.042;-96.586;2023-04-04T05:19:58;98445.57;;;21.00;34.55
48718;BME280;34521;33.042;-96.586;2023-04-04T05:22:23;98444.20;;;21.56;34.41
48718;BME280;34521;33.042;-96.586;2023-04-04T05:24:48;98442.85;;;21.82;34.06
48718;BME280;34521;33.042;-96.586;2023-04-04T05:27:13;98437.80;;;22.54;33.20
48718;BME280;34521;33.042;-96.586;2023-04-04T05:29:38;98439.86;;;22.47;33.08
48718;BME280;34521;33.042;-96.586;2023-04-04T05:32:04;98440.91;;;22.69;32.85
48718;BME280;34521;33.042;-96.586;2023-04-04T05:34:29;98440.05;;;22.78;32.77
48718;BME280;34521;33.042;-96.586;2023-04-04T05:36:54;98443.08;;;22.80;32.81
48718;BME280;34521;33.042;-96.586;2023-04-04T05:39:19;98443.15;;;22.91;32.45
48718;BME280;34521;33.042;-96.586;2023-04-04T05:41:44;98444.30;;;22.57;33.95
48718;BME280;34521;33.042;-96.586;2023-04-04T05:44:09;98453.64;;;21.22;34.86
48718;BME280;34521;33.042;-96.586;2023-04-04T05:46:34;98455.51;;;20.94;34.64
48718;BME280;34521;33.042;-96.586;2023-04-04T05:48:59;98448.93;;;21.30;34.86
48718;BME280;34521;33.042;-96.586;2023-04-04T05:51:24;98443.98;;;21.52;34.05
48718;BME280;34521;33.042;-96.586;2023-04-04T05:53:49;98439.03;;;22.08;33.38
48718;BME280;34521;33.042;-96.586;2023-04-04T05:56:15;98442.52;;;22.20;33.28
48718;BME280;34521;33.042;-96.586;2023-04-04T05:58:40;98446.78;;;22.05;33.27
48718;BME280;34521;33.042;-96.586;2023-04-04T06:01:06;98448.78;;;22.42;32.87
48718;BME280;34521;33.042;-96.586;2023-04-04T06:03:30;98447.40;;;22.54;33.06
48718;BME280;34521;33.042;-96.586;2023-04-04T06:05:55;98440.21;;;23.02;32.85
48718;BME280;34521;33.042;-96.586;2023-04-04T06:08:20;98445.24;;;22.65;32.79
48718;BME280;34521;33.042;-96.586;2023-04-04T06:10:45;98443.82;;;21.60;34.94
48718;BME280;34521;33.042;-96.586;2023-04-04T06:13:10;98443.32;;;21.22;34.82
48718;BME280;34521;33.042;-96.586;2023-04-04T06:15:35;98440.81;;;21.08;34.37
48718;BME280;34521;33.042;-96.586;2023-04-04T06:18:00;98438.79;;;21.84;34.37
48718;BME280;34521;33.042;-96.586;2023-04-04T06:20:25;98425.82;;;22.07;33.66
48718;BME280;34521;33.042;-96.586;2023-04-04T06:22:51;98430.76;;;22.37;33.35
48718;BME280;34521;33.042;-96.586;2023-04-04T06:25:16;98427.20;;;22.19;33.30
48718;BME280;34521;33.042;-96.586;2023-04-04T06:27:41;98425.71;;;22.72;33.06
48718;BME280;34521;33.042;-96.586;2023-04-04T06:30:07;98421.42;;;22.64;32.90
48718;BME280;34521;33.042;-96.586;2023-04-04T06:32:31;98423.07;;;22.49;32.87
48718;BME280;34521;33.042;-96.586;2023-04-04T06:34:56;98422.68;;;22.78;32.51
48718;BME280;34521;33.042;-96.586;2023-04-04T06:37:22;98418.56;;;22.90;32.72
48718;BME280;34521;33.042;-96.586;2023-04-04T06:39:46;98415.24;;;22.87;32.54
48718;BME280;34521;33.042;-96.586;2023-04-04T06:42:12;98421.08;;;21.11;35.05
48718;BME280;34521;33.042;-96.586;2023-04-04T06:44:37;98415.90;;;21.21;34.81
48718;BME280;34521;33.042;-96.586;2023-04-04T06:47:01;98409.84;;;21.13;35.19
48718;BME280;34521;33.042;-96.586;2023-04-04T06:49:27;98403.02;;;21.95;33.72
48718;BME280;34521;33.042;-96.586;2023-04-04T06:51:52;98406.77;;;22.16;33.56
48718;BME280;34521;33.042;-96.586;2023-04-04T06:54:17;98406.49;;;22.05;33.44
48718;BME280;34521;33.042;-96.586;2023-04-04T06:56:42;98407.86;;;22.16;33.11
48718;BME280;34521;33.042;-96.586;2023-04-04T06:59:07;98410.36;;;22.91;32.81
48718;BME280;34521;33.042;-96.586;2023-04-04T07:01:33;98409.64;;;22.73;32.79
48718;BME280;34521;33.042;-96.586;2023-04-04T07:03:57;98407.70;;;22.62;32.91
48718;BME280;34521;33.042;-96.586;2023-04-04T07:06:22;98400.06;;;21.75;36.62
48718;BME280;34521;33.042;-96.586;2023-04-04T07:08:47;98405.24;;;21.48;37.07
48718;BME280;34521;33.042;-96.586;2023-04-04T07:11:12;98400.38;;;22.09;36.27
48718;BME280;34521;33.042;-96.586;2023-04-04T07:13:37;98393.49;;;22.23;35.60
48718;BME280;34521;33.042;-96.586;2023-04-04T07:16:04;98391.35;;;22.82;35.05
48718;BME280;34521;33.042;-96.586;2023-04-04T07:18:28;98399.16;;;21.19;36.52
48718;BME280;34521;33.042;-96.586;2023-04-04T07:20:53;98399.17;;;20.81;36.08
48718;BME280;34521;33.042;-96.586;2023-04-04T07:23:18;98391.57;;;21.16;36.34
48718;BME280;34521;33.042;-96.586;2023-04-04T07:25:43;98385.24;;;21.69;34.84
48718;BME280;34521;33.042;-96.586;2023-04-04T07:28:09;98380.97;;;22.13;34.65
48718;BME280;34521;33.042;-96.586;2023-04-04T07:30:33;98380.16;;;22.06;34.46
48718;BME280;34521;33.042;-96.586;2023-04-04T07:32:59;98373.81;;;22.39;34.12
48718;BME280;34521;33.042;-96.586;2023-04-04T07:35:24;98379.47;;;22.71;33.73
48718;BME280;34521;33.042;-96.586;2023-04-04T07:37:48;98369.34;;;22.56;33.94
48718;BME280;34521;33.042;-96.586;2023-04-04T07:40:14;98368.51;;;22.80;33.63
48718;BME280;34521;33.042;-96.586;2023-04-04T07:42:43;98365.64;;;22.26;34.06
48718;BME280;34521;33.042;-96.586;2023-04-04T07:45:04;98361.15;;;22.57;33.74
48718;BME280;34521;33.042;-96.586;2023-04-04T07:47:29;98361.82;;;21.93;34.77
48718;BME280;34521;33.042;-96.586;2023-04-04T07:49:54;98370.24;;;20.88;36.03
48718;BME280;34521;33.042;-96.586;2023-04-04T07:52:19;98367.91;;;20.63;35.14
48718;BME280;34521;33.042;-96.586;2023-04-04T07:54:44;98366.05;;;21.31;35.42
48718;BME280;34521;33.042;-96.586;2023-04-04T07:57:09;98360.58;;;21.58;34.48
48718;BME280;34521;33.042;-96.586;2023-04-04T07:59:34;98360.72;;;22.06;34.00
48718;BME280;34521;33.042;-96.586;2023-04-04T08:01:59;98358.42;;;22.30;33.72
48718;BME280;34521;33.042;-96.586;2023-04-04T08:04:24;98355.05;;;22.38;33.67
48718;BME280;34521;33.042;-96.586;2023-04-04T08:06:49;98354.75;;;21.76;36.70
48718;BME280;34521;33.042;-96.586;2023-04-04T08:09:14;98349.61;;;21.88;35.66
48718;BME280;34521;33.042;-96.586;2023-04-04T08:11:39;98344.67;;;22.16;35.42
48718;BME280;34521;33.042;-96.586;2023-04-04T08:14:04;98336.66;;;22.42;35.09
48718;BME280;34521;33.042;-96.586;2023-04-04T08:16:29;98338.65;;;22.62;34.76
48718;BME280;34521;33.042;-96.586;2023-04-04T08:18:54;98332.19;;;22.69;34.62
48718;BME280;34521;33.042;-96.586;2023-04-04T08:21:20;98328.22;;;22.67;34.59
48718;BME280;34521;33.042;-96.586;2023-04-04T08:23:44;98332.29;;;21.18;36.36
48718;BME280;34521;33.042;-96.586;2023-04-04T08:26:10;98334.83;;;20.76;36.11
48718;BME280;34521;33.042;-96.586;2023-04-04T08:28:34;98335.04;;;20.88;36.10
48718;BME280;34521;33.042;-96.586;2023-04-04T08:31:00;98331.66;;;21.22;35.16
48718;BME280;34521;33.042;-96.586;2023-04-04T08:33:26;98331.54;;;22.13;34.29
48718;BME280;34521;33.042;-96.586;2023-04-04T08:35:50;98333.62;;;22.31;33.84
48718;BME280;34521;33.042;-96.586;2023-04-04T08:38:15;98327.32;;;22.31;33.88
48718;BME280;34521;33.042;-96.586;2023-04-04T08:40:40;98318.18;;;22.40;33.81
48718;BME280;34521;33.042;-96.586;2023-04-04T08:43:05;98309.73;;;22.45;33.76
48718;BME280;34521;33.042;-96.586;2023-04-04T08:45:31;98309.42;;;22.53;33.64
48718;BME280;34521;33.042;-96.586;2023-04-04T08:47:58;98309.99;;;22.34;33.93
48718;BME280;34521;33.042;-96.586;2023-04-04T08:50:20;98312.88;;;22.59;33.70
48718;BME280;34521;33.042;-96.586;2023-04-04T08:52:46;98306.11;;;22.20;34.23
48718;BME280;34521;33.042;-96.586;2023-04-04T08:55:10;98301.62;;;22.55;33.85
48718;BME280;34521;33.042;-96.586;2023-04-04T08:57:35;98307.22;;;22.10;34.52
48718;BME280;34521;33.042;-96.586;2023-04-04T09:00:01;98315.23;;;20.89;36.10
48718;BME280;34521;33.042;-96.586;2023-04-04T09:02:30;98319.06;;;20.27;35.97
48718;BME280;34521;33.042;-96.586;2023-04-04T09:04:52;98321.63;;;20.95;35.73
48718;BME280;34521;33.042;-96.586;2023-04-04T09:07:16;98321.65;;;21.07;37.47
48718;BME280;34521;33.042;-96.586;2023-04-04T09:09:43;98321.58;;;21.58;36.11
48718;BME280;34521;33.042;-96.586;2023-04-04T09:12:06;98313.68;;;22.00;35.17
48718;BME280;34521;33.042;-96.586;2023-04-04T09:14:31;98309.04;;;21.90;35.29
48718;BME280;34521;33.042;-96.586;2023-04-04T09:16:56;98306.97;;;22.32;34.70
48718;BME280;34521;33.042;-96.586;2023-04-04T09:19:22;98310.28;;;22.49;34.41
48718;BME280;34521;33.042;-96.586;2023-04-04T09:21:47;98314.51;;;22.88;34.14
48718;BME280;34521;33.042;-96.586;2023-04-04T09:24:11;98313.46;;;22.11;34.54
48718;BME280;34521;33.042;-96.586;2023-04-04T09:26:46;98315.15;;;22.12;34.81
48718;BME280;34521;33.042;-96.586;2023-04-04T09:29:02;98316.16;;;22.34;34.57
48718;BME280;34521;33.042;-96.586;2023-04-04T09:31:28;98318.17;;;22.30;34.64
48718;BME280;34521;33.042;-96.586;2023-04-04T09:33:52;98321.12;;;22.15;34.84
48718;BME280;34521;33.042;-96.586;2023-04-04T09:36:17;98319.31;;;22.11;35.01
48718;BME280;34521;33.042;-96.586;2023-04-04T09:38:42;98326.34;;;20.78;36.20
48718;BME280;34521;33.042;-96.586;2023-04-04T09:41:07;98332.11;;;20.41;36.49
48718;BME280;34521;33.042;-96.586;2023-04-04T09:43:32;98330.20;;;20.61;36.32
48718;BME280;34521;33.042;-96.586;2023-04-04T09:45:58;98321.84;;;21.48;35.01
48718;BME280;34521;33.042;-96.586;2023-04-04T09:48:29;98319.38;;;21.84;34.22
48718;BME280;34521;33.042;-96.586;2023-04-04T09:50:47;98315.32;;;21.80;34.38
48718;BME280;34521;33.042;-96.586;2023-04-04T09:53:16;98322.89;;;21.98;34.26
48718;BME280;34521;33.042;-96.586;2023-04-04T09:55:37;98323.22;;;22.00;34.28
48718;BME280;34521;33.042;-96.586;2023-04-04T09:58:12;98316.60;;;22.37;33.81
48718;BME280;34521;33.042;-96.586;2023-04-04T10:00:28;98324.02;;;21.24;38.52
48718;BME280;34521;33.042;-96.586;2023-04-04T10:02:52;98327.14;;;20.63;40.28
48718;BME280;34521;33.042;-96.586;2023-04-04T10:05:17;98328.05;;;20.62;40.50
48718;BME280;34521;33.042;-96.586;2023-04-04T10:07:42;98318.62;;;21.70;38.48
48718;BME280;34521;33.042;-96.586;2023-04-04T10:10:09;98324.66;;;22.28;37.58
48718;BME280;34521;33.042;-96.586;2023-04-04T10:12:33;98326.06;;;22.17;37.22
48718;BME280;34521;33.042;-96.586;2023-04-04T10:14:58;98325.61;;;22.17;37.07
48718;BME280;34521;33.042;-96.586;2023-04-04T10:17:23;98330.86;;;22.50;36.39
48718;BME280;34521;33.042;-96.586;2023-04-04T10:19:48;98326.08;;;22.25;36.22
48718;BME280;34521;33.042;-96.586;2023-04-04T10:22:13;98326.85;;;22.30;35.99
48718;BME280;34521;33.042;-96.586;2023-04-04T10:24:38;98324.61;;;22.77;35.59
48718;BME280;34521;33.042;-96.586;2023-04-04T10:27:03;98327.42;;;20.21;38.61
48718;BME280;34521;33.042;-96.586;2023-04-04T10:29:28;98325.03;;;20.19;38.16
48718;BME280;34521;33.042;-96.586;2023-04-04T10:31:58;98326.09;;;19.99;38.34
48718;BME280;34521;33.042;-96.586;2023-04-04T10:34:24;98320.58;;;21.31;36.63
48718;BME280;34521;33.042;-96.586;2023-04-04T10:36:45;98325.52;;;21.54;35.83
48718;BME280;34521;33.042;-96.586;2023-04-04T10:39:13;98328.76;;;21.57;35.57
48718;BME280;34521;33.042;-96.586;2023-04-04T10:41:35;98331.59;;;21.80;35.30
48718;BME280;34521;33.042;-96.586;2023-04-04T10:44:11;98328.86;;;22.09;34.94
48718;BME280;34521;33.042;-96.586;2023-04-04T10:46:24;98328.69;;;21.95;35.20
48718;BME280;34521;33.042;-96.586;2023-04-04T10:48:48;98327.30;;;21.85;35.37
48718;BME280;34521;33.042;-96.586;2023-04-04T10:51:14;98326.19;;;22.33;34.70
48718;BME280;34521;33.042;-96.586;2023-04-04T10:53:39;98324.35;;;21.90;35.02
48718;BME280;34521;33.042;-96.586;2023-04-04T10:56:03;98326.36;;;22.31;35.53
48718;BME280;34521;33.042;-96.586;2023-04-04T10:58:28;98328.06;;;20.46;38.99
48718;BME280;34521;33.042;-96.586;2023-04-04T11:00:55;98337.05;;;20.95;40.23
48718;BME280;34521;33.042;-96.586;2023-04-04T11:03:18;98336.74;;;20.82;40.79
48718;BME280;34521;33.042;-96.586;2023-04-04T11:05:43;98328.48;;;21.68;38.90
48718;BME280;34521;33.042;-96.586;2023-04-04T11:08:10;98335.06;;;22.36;38.39
48718;BME280;34521;33.042;-96.586;2023-04-04T11:10:35;98331.34;;;22.58;37.67
48718;BME280;34521;33.042;-96.586;2023-04-04T11:13:02;98331.66;;;22.34;37.40
48718;BME280;34521;33.042;-96.586;2023-04-04T11:15:25;98331.29;;;21.69;38.04
48718;BME280;34521;33.042;-96.586;2023-04-04T11:17:55;98344.45;;;19.89;39.66
48718;BME280;34521;33.042;-96.586;2023-04-04T11:20:16;98340.77;;;20.10;38.90
48718;BME280;34521;33.042;-96.586;2023-04-04T11:22:41;98334.22;;;21.41;37.34
48718;BME280;34521;33.042;-96.586;2023-04-04T11:25:27;98338.79;;;21.38;36.52
48718;BME280;34521;33.042;-96.586;2023-04-04T11:27:30;98336.38;;;21.84;36.31
48718;BME280;34521;33.042;-96.586;2023-04-04T11:29:57;98332.89;;;22.15;35.56
48718;BME280;34521;33.042;-96.586;2023-04-04T11:32:33;98338.04;;;22.25;35.52
48718;BME280;34521;33.042;-96.586;2023-04-04T11:34:45;98339.28;;;22.55;35.11
48718;BME280;34521;33.042;-96.586;2023-04-04T11:37:16;98341.93;;;22.50;35.14
48718;BME280;34521;33.042;-96.586;2023-04-04T11:42:04;98336.76;;;22.20;35.75
48718;BME280;34521;33.042;-96.586;2023-04-04T11:44:26;98337.81;;;22.30;35.59
48718;BME280;34521;33.042;-96.586;2023-04-04T11:46:55;98337.37;;;22.29;35.65
48718;BME280;34521;33.042;-96.586;2023-04-04T11:49:16;98343.66;;;22.05;36.10
48718;BME280;34521;33.042;-96.586;2023-04-04T11:51:41;98352.73;;;20.18;38.18
48718;BME280;34521;33.042;-96.586;2023-04-04T11:54:13;98354.59;;;20.19;37.74
48718;BME280;34521;33.042;-96.586;2023-04-04T11:56:35;98356.55;;;20.46;37.65
48718;BME280;34521;33.042;-96.586;2023-04-04T11:58:57;98349.36;;;21.68;35.60
48718;BME280;34521;33.042;-96.586;2023-04-04T12:01:22;98354.71;;;21.76;35.30
48718;BME280;34521;33.042;-96.586;2023-04-04T12:03:48;98357.05;;;21.25;39.08
48718;BME280;34521;33.042;-96.586;2023-04-04T12:06:12;98350.54;;;22.09;36.46
48718;BME280;34521;33.042;-96.586;2023-04-04T12:08:38;98349.91;;;21.99;36.68
48718;BME280;34521;33.042;-96.586;2023-04-04T12:11:06;98347.49;;;21.53;37.03
48718;BME280;34521;33.042;-96.586;2023-04-04T12:13:30;98354.40;;;22.43;35.73
48718;BME280;34521;33.042;-96.586;2023-04-04T12:15:52;98353.54;;;22.47;35.53
48718;BME280;34521;33.042;-96.586;2023-04-04T12:18:26;98359.66;;;22.10;35.64
48718;BME280;34521;33.042;-96.586;2023-04-04T12:20:47;98365.72;;;22.12;35.97
48718;BME280;34521;33.042;-96.586;2023-04-04T12:23:08;98369.62;;;22.16;35.94
48718;BME280;34521;33.042;-96.586;2023-04-04T12:25:33;98368.12;;;21.93;35.63
48718;BME280;34521;33.042;-96.586;2023-04-04T12:27:58;98367.41;;;21.27;36.99
48718;BME280;34521;33.042;-96.586;2023-04-04T12:30:23;98375.30;;;19.35;39.35